Time;durP1;ratioP1;P1;durP2;ratioP2;P2;SDS_P1;SDS_P2;PMS_P1;PMS_P2;Temp;Humidity;BMP_temperature;BMP_pressure;BME280_temperature;BME280_humidity;BME280_pressure;Samples;Min_cycle;Max_cycle;Signal;HPM_P1;HPM_P2
2023/05/19 00:00:31;;;;;;;12.90;3.33;;;9.90;99.90;;;;;;5073544;28;20040;-80
2023/05/19 00:02:59;;;;;;;14.32;3.58;;;9.90;99.90;;;;;;5072030;28;20052;-80
2023/05/19 00:05:26;;;;;;;12.30;3.25;;;9.90;99.90;;;;;;5073357;28;20037;-80
2023/05/19 00:07:57;;;;;;;14.82;4.05;;;9.90;99.90;;;;;;5073447;28;20109;-80
2023/05/19 00:10:23;;;;;;;10.98;3.92;;;9.90;99.90;;;;;;5070985;28;20052;-81
2023/05/19 00:12:51;;;;;;;11.30;3.42;;;9.90;99.90;;;;;;5073380;28;20028;-80
2023/05/19 00:15:17;;;;;;;21.52;4.30;;;9.90;99.90;;;;;;5073721;28;20041;-80
2023/05/19 00:17:47;;;;;;;12.27;4.30;;;9.90;99.90;;;;;;5073233;28;20492;-80
2023/05/19 00:20:14;;;;;;;12.32;3.65;;;9.90;99.90;;;;;;5072463;28;20090;-80
2023/05/19 00:22:42;;;;;;;17.50;3.95;;;9.90;99.90;;;;;;5073327;28;20045;-81
2023/05/19 00:25:12;;;;;;;18.80;3.40;;;9.90;99.90;;;;;;5073190;28;20399;-80
2023/05/19 00:27:43;;;;;;;12.65;4.28;;;9.90;99.90;;;;;;5072998;28;20540;-80
2023/05/19 00:30:09;;;;;;;16.13;3.83;;;9.90;99.90;;;;;;5073118;28;20044;-80
2023/05/19 00:32:35;;;;;;;12.55;3.30;;;9.90;99.90;;;;;;5073140;28;20066;-80
2023/05/19 00:35:01;;;;;;;19.45;4.75;;;9.90;99.90;;;;;;5073186;28;20033;-81
2023/05/19 00:37:26;;;;;;;14.50;3.60;;;9.90;99.90;;;;;;5073132;28;20041;-81
2023/05/19 00:39:52;;;;;;;16.27;4.05;;;9.90;99.90;;;;;;5073008;28;20056;-80
2023/05/19 00:42:19;;;;;;;13.15;3.97;;;9.90;99.90;;;;;;5073069;28;20044;-81
2023/05/19 00:44:48;;;;;;;17.15;3.80;;;9.90;99.90;;;;;;5073185;28;20090;-80
2023/05/19 00:47:14;;;;;;;16.75;4.45;;;9.90;99.90;;;;;;5072762;28;20388;-81
2023/05/19 00:49:39;;;;;;;13.27;3.25;;;9.90;99.90;;;;;;5071763;28;20503;-81
2023/05/19 00:52:06;;;;;;;14.35;3.33;;;9.90;99.90;;;;;;5071562;28;20052;-81
2023/05/19 00:54:35;;;;;;;10.60;3.20;;;9.90;99.90;;;;;;5072972;28;20098;-81
2023/05/19 00:57:01;;;;;;;10.15;3.05;;;9.90;99.90;;;;;;5071708;28;20438;-80
2023/05/19 00:59:27;;;;;;;14.35;3.13;;;9.90;99.90;;;;;;5073019;28;20029;-81
2023/05/19 01:01:52;;;;;;;19.30;3.97;;;9.90;99.90;;;;;;5071614;28;20488;-81
2023/05/19 01:04:20;;;;;;;15.10;3.40;;;9.90;99.90;;;;;;5073511;28;20479;-81
2023/05/19 01:06:53;;;;;;;8.75;3.13;;;9.90;99.90;;;;;;5075243;28;20044;-81
2023/05/19 01:09:26;;;;;;;9.20;3.00;;;9.90;99.90;;;;;;5076175;28;20395;-81
2023/05/19 01:11:55;;;;;;;11.77;3.20;;;9.90;99.90;;;;;;5076256;28;20043;-81
2023/05/19 01:14:21;;;;;;;13.85;3.45;;;9.90;99.90;;;;;;5076356;28;20040;-80
2023/05/19 01:17:04;;;;;;;13.95;4.15;;;9.90;99.90;;;;;;5076347;28;20047;-81
2023/05/19 01:19:55;;;;;;;19.38;3.67;;;10.00;99.90;;;;;;5075290;28;20059;-81
2023/05/19 01:22:29;;;;;;;17.42;4.07;;;10.00;99.90;;;;;;5074885;28;20101;-81
2023/05/19 01:25:32;;;;;;;13.20;3.30;;;10.00;99.90;;;;;;5074944;28;20102;-81
2023/05/19 01:28:35;;;;;;;16.38;3.47;;;10.00;99.90;;;;;;5075517;28;20114;-81
2023/05/19 01:31:06;;;;;;;14.40;3.30;;;10.00;99.90;;;;;;5075910;28;20454;-81
2023/05/19 01:33:32;;;;;;;10.57;3.42;;;10.00;99.90;;;;;;5076005;28;20137;-81
2023/05/19 01:36:01;;;;;;;14.90;3.70;;;9.90;99.90;;;;;;5074613;28;20048;-81
2023/05/19 01:38:33;;;;;;;14.55;3.83;;;10.00;99.90;;;;;;5075692;28;20418;-81
2023/05/19 01:41:03;;;;;;;15.50;3.95;;;10.00;99.90;;;;;;5075750;28;20040;-81
2023/05/19 01:43:32;;;;;;;18.33;3.40;;;9.90;99.90;;;;;;5074401;28;20105;-81
2023/05/19 01:45:58;;;;;;;11.18;3.47;;;9.90;99.90;;;;;;5075864;28;20051;-80
2023/05/19 01:48:24;;;;;;;13.35;3.92;;;9.90;99.90;;;;;;5075413;28;20044;-80
2023/05/19 01:50:56;;;;;;;14.88;3.58;;;9.80;99.90;;;;;;5075511;28;20051;-81
2023/05/19 01:53:23;;;;;;;13.73;3.95;;;9.90;99.90;;;;;;5075455;28;20048;-81
2023/05/19 01:55:53;;;;;;;18.77;4.75;;;9.90;99.90;;;;;;5075396;28;20476;-80
2023/05/19 01:58:19;;;;;;;14.73;4.38;;;9.90;99.90;;;;;;5075589;28;20048;-80
2023/05/19 02:00:45;;;;;;;18.63;5.00;;;10.00;99.90;;;;;;5075350;28;20052;-81
2023/05/19 02:03:49;;;;;;;19.08;4.55;;;9.90;99.90;;;;;;5074157;28;20131;-81
2023/05/19 02:06:28;;;;;;;17.88;4.40;;;9.90;99.90;;;;;;5075267;28;20090;-81
2023/05/19 02:09:12;;;;;;;13.65;4.35;;;9.90;99.90;;;;;;5075054;28;20044;-80
2023/05/19 02:12:02;;;;;;;19.80;4.50;;;9.90;99.90;;;;;;5075682;28;20060;-80
2023/05/19 02:14:38;;;;;;;18.23;4.30;;;9.90;99.90;;;;;;5075130;28;20041;-81
2023/05/19 02:17:05;;;;;;;28.42;4.20;;;9.90;99.90;;;;;;5073603;28;20476;-81
2023/05/19 02:19:40;;;;;;;15.75;4.00;;;9.90;99.90;;;;;;5074983;28;20087;-80
2023/05/19 02:22:05;;;;;;;17.83;4.88;;;9.90;99.90;;;;;;5073704;28;20373;-80
2023/05/19 02:24:31;;;;;;;17.58;4.72;;;9.90;99.90;;;;;;5075165;28;20549;-80
2023/05/19 02:27:01;;;;;;;16.25;4.47;;;10.00;99.90;;;;;;5074860;28;20052;-80
2023/05/19 02:29:29;;;;;;;23.08;4.53;;;9.90;99.90;;;;;;5073448;28;20040;-80
2023/05/19 02:32:05;;;;;;;18.20;4.50;;;9.90;99.90;;;;;;5073801;28;20053;-80
2023/05/19 02:34:30;;;;;;;15.45;3.97;;;9.90;99.90;;;;;;5074664;28;20099;-80
2023/05/19 02:36:56;;;;;;;16.63;4.70;;;9.90;99.90;;;;;;5073519;28;20514;-80
2023/05/19 02:39:22;;;;;;;15.13;4.28;;;9.80;99.90;;;;;;5074724;28;20135;-81
2023/05/19 02:41:48;;;;;;;22.35;4.47;;;9.80;99.90;;;;;;5074606;28;20127;-81
2023/05/19 02:44:14;;;;;;;12.80;4.15;;;9.80;99.90;;;;;;5074573;28;20373;-81
2023/05/19 02:46:39;;;;;;;14.20;4.32;;;9.80;99.90;;;;;;5074589;28;20033;-81
2023/05/19 02:49:05;;;;;;;17.80;4.82;;;9.80;99.90;;;;;;5074379;28;20039;-81
2023/05/19 02:51:31;;;;;;;28.10;5.30;;;9.80;99.90;;;;;;5074756;28;20437;-81
2023/05/19 02:53:56;;;;;;;16.48;4.40;;;9.80;99.90;;;;;;5074329;28;20459;-81
2023/05/19 02:56:22;;;;;;;20.17;5.15;;;9.70;99.90;;;;;;5073157;28;20552;-80
2023/05/19 02:58:48;;;;;;;21.50;4.72;;;9.80;99.90;;;;;;5074343;28;20036;-80
2023/05/19 03:01:13;;;;;;;19.25;5.15;;;9.70;99.90;;;;;;5072902;28;20055;-80
2023/05/19 03:03:39;;;;;;;17.02;5.10;;;9.80;99.90;;;;;;5073986;28;20036;-80
2023/05/19 03:06:07;;;;;;;16.05;5.25;;;9.70;99.90;;;;;;5074171;28;20041;-80
2023/05/19 03:08:34;;;;;;;19.77;5.82;;;9.70;99.90;;;;;;5073961;28;20056;-80
2023/05/19 03:11:00;;;;;;;19.67;4.70;;;9.70;99.90;;;;;;5074117;28;20063;-80
2023/05/19 03:13:26;;;;;;;22.60;5.47;;;9.70;99.90;;;;;;5074100;28;20058;-80
2023/05/19 03:15:52;;;;;;;16.15;4.55;;;9.70;99.90;;;;;;5073953;28;20048;-80
2023/05/19 03:18:18;;;;;;;17.23;5.05;;;9.70;99.90;;;;;;5074313;28;20131;-81
2023/05/19 03:20:43;;;;;;;25.70;6.45;;;9.70;99.90;;;;;;5074242;28;20072;-80
2023/05/19 03:23:09;;;;;;;19.38;5.00;;;9.70;99.90;;;;;;5073844;28;20041;-80
2023/05/19 03:25:35;;;;;;;33.28;6.85;;;9.60;99.90;;;;;;5072501;28;20053;-80
2023/05/19 03:28:03;;;;;;;18.55;5.35;;;9.60;99.90;;;;;;5071281;28;20198;-80
2023/05/19 03:30:29;;;;;;;25.50;6.60;;;9.70;99.90;;;;;;5072720;28;20369;-80
2023/05/19 03:33:00;;;;;;;24.58;5.82;;;9.70;99.90;;;;;;5073171;28;20530;-80
2023/05/19 03:35:26;;;;;;;23.52;5.75;;;9.60;99.90;;;;;;5072334;28;20437;-81
2023/05/19 03:37:51;;;;;;;19.45;5.15;;;9.60;99.90;;;;;;5073560;28;20086;-80
2023/05/19 03:40:17;;;;;;;25.40;5.68;;;9.60;99.90;;;;;;5073381;28;20044;-81
2023/05/19 03:42:43;;;;;;;21.10;5.28;;;9.60;99.90;;;;;;5073440;28;20101;-81
2023/05/19 03:45:09;;;;;;;22.98;6.30;;;9.60;99.90;;;;;;5073303;28;20511;-81
2023/05/19 03:47:35;;;;;;;24.55;5.72;;;9.60;99.90;;;;;;5073547;28;20037;-80
2023/05/19 03:50:01;;;;;;;20.40;5.68;;;9.50;99.90;;;;;;5073462;28;20573;-80
2023/05/19 03:52:26;;;;;;;23.45;5.57;;;9.60;99.90;;;;;;5073434;28;20516;-80
2023/05/19 03:54:52;;;;;;;21.02;5.78;;;9.60;99.90;;;;;;5073234;28;20048;-80
2023/05/19 03:57:20;;;;;;;22.15;5.40;;;9.60;99.90;;;;;;5073296;28;20036;-80
2023/05/19 03:59:45;;;;;;;21.83;4.82;;;9.60;99.90;;;;;;5073275;28;20059;-80
2023/05/19 04:02:11;;;;;;;25.30;6.07;;;9.60;99.90;;;;;;5072275;28;20048;-80
2023/05/19 04:04:37;;;;;;;21.25;6.05;;;9.60;99.90;;;;;;5073396;28;20052;-81
2023/05/19 04:07:06;;;;;;;25.92;6.38;;;9.60;99.90;;;;;;5072143;28;20072;-80
2023/05/19 04:09:34;;;;;;;25.50;6.18;;;9.60;99.90;;;;;;5073208;28;20523;-80
2023/05/19 04:12:01;;;;;;;28.52;5.93;;;9.70;99.90;;;;;;5073022;28;20510;-80
2023/05/19 04:14:27;;;;;;;17.15;5.93;;;9.60;99.90;;;;;;5072991;28;20434;-80
2023/05/19 04:16:53;;;;;;;27.27;6.88;;;9.70;99.90;;;;;;5073323;28;20154;-81
2023/05/19 04:19:19;;;;;;;21.45;6.50;;;9.70;99.90;;;;;;5072977;28;20495;-80
2023/05/19 04:21:44;;;;;;;27.13;6.93;;;9.90;99.90;;;;;;5071835;28;20044;-80
2023/05/19 04:24:10;;;;;;;17.70;5.32;;;9.90;99.90;;;;;;5072949;28;20048;-80
2023/05/19 04:26:37;;;;;;;19.73;6.10;;;10.00;99.90;;;;;;5071808;28;20057;-80
2023/05/19 04:29:03;;;;;;;25.90;6.10;;;10.00;99.90;;;;;;5072790;28;20408;-80
2023/05/19 04:31:29;;;;;;;26.00;5.80;;;10.10;99.90;;;;;;5071703;28;20091;-81
2023/05/19 04:33:55;;;;;;;23.75;6.13;;;10.10;99.90;;;;;;5073201;28;20095;-81
2023/05/19 04:36:21;;;;;;;29.00;5.95;;;10.30;99.90;;;;;;5073061;28;20072;-81
2023/05/19 04:38:47;;;;;;;23.50;6.03;;;10.30;99.90;;;;;;5074575;28;20041;-81
2023/05/19 04:41:12;;;;;;;24.23;5.70;;;10.40;99.90;;;;;;5075364;28;20509;-81
2023/05/19 04:43:40;;;;;;;17.42;5.18;;;10.40;99.90;;;;;;5076740;28;20040;-81
2023/05/19 04:46:08;;;;;;;21.65;5.07;;;10.40;99.90;;;;;;5076806;28;20048;-82
2023/05/19 04:48:38;;;;;;;21.25;5.05;;;10.50;99.90;;;;;;5076756;28;20044;-81
2023/05/19 04:51:07;;;;;;;19.27;4.72;;;10.60;99.90;;;;;;5076726;28;20052;-81
2023/05/19 04:53:35;;;;;;;18.15;5.00;;;10.60;99.90;;;;;;5076429;28;20195;-81
2023/05/19 04:56:04;;;;;;;18.92;6.38;;;10.70;99.90;;;;;;5076363;28;20036;-81
2023/05/19 04:58:30;;;;;;;14.02;5.70;;;10.80;99.90;;;;;;5076852;28;20392;-81
2023/05/19 05:00:59;;;;;;;18.50;5.47;;;11.00;99.90;;;;;;5076494;28;20055;-81
2023/05/19 05:03:25;;;;;;;18.48;5.70;;;11.00;99.90;;;;;;5075276;28;20040;-81
2023/05/19 05:05:51;;;;;;;14.07;4.38;;;11.10;99.90;;;;;;5076195;28;20036;-81
2023/05/19 05:08:22;;;;;;;17.98;5.93;;;11.20;99.90;;;;;;5076303;28;20420;-81
2023/05/19 05:10:51;;;;;;;16.85;5.20;;;11.30;99.90;;;;;;5076039;28;20048;-81
2023/05/19 05:13:20;;;;;;;19.95;5.47;;;11.40;99.90;;;;;;5076292;28;20083;-81
2023/05/19 05:15:46;;;;;;;14.82;4.85;;;11.50;99.90;;;;;;5076275;28;20051;-81
2023/05/19 05:18:13;;;;;;;18.65;5.22;;;11.50;99.90;;;;;;5075949;28;20056;-81
2023/05/19 05:20:43;;;;;;;14.48;4.03;;;11.60;99.90;;;;;;5076000;28;20055;-81
2023/05/19 05:23:13;;;;;;;14.13;4.63;;;11.70;99.90;;;;;;5075863;28;20135;-81
2023/05/19 05:25:40;;;;;;;15.40;4.18;;;11.90;99.90;;;;;;5076120;28;20124;-81
2023/05/19 05:28:08;;;;;;;14.68;4.38;;;11.80;99.90;;;;;;5074503;28;20053;-81
2023/05/19 05:30:34;;;;;;;12.80;4.28;;;12.00;99.90;;;;;;5075952;28;20079;-81
2023/05/19 05:33:00;;;;;;;15.65;4.40;;;12.10;99.90;;;;;;5074568;28;20075;-81
2023/05/19 05:35:26;;;;;;;15.45;4.63;;;12.00;99.90;;;;;;5075581;28;20036;-81
2023/05/19 05:37:52;;;;;;;15.63;4.35;;;12.20;99.90;;;;;;5075811;28;20706;-81
2023/05/19 05:40:19;;;;;;;13.32;4.38;;;12.30;99.90;;;;;;5075822;28;20053;-80
2023/05/19 05:42:45;;;;;;;12.48;3.97;;;12.30;99.90;;;;;;5074304;28;20144;-81
2023/05/19 05:45:12;;;;;;;13.05;4.13;;;12.40;99.90;;;;;;5075500;28;20375;-81
2023/05/19 05:47:40;;;;;;;17.35;4.60;;;12.30;99.90;;;;;;5075586;28;20040;-81
2023/05/19 05:50:07;;;;;;;12.98;4.13;;;12.40;99.90;;;;;;5074462;28;20049;-81
2023/05/19 05:52:35;;;;;;;9.75;3.92;;;12.40;99.90;;;;;;5075554;28;20055;-81
2023/05/19 05:55:02;;;;;;;14.35;4.43;;;12.40;99.90;;;;;;5075488;28;20174;-81
2023/05/19 05:57:29;;;;;;;10.20;3.85;;;12.60;99.90;;;;;;5075269;28;20055;-81
2023/05/19 05:59:55;;;;;;;11.05;4.30;;;12.80;99.90;;;;;;5075438;28;20044;-82
2023/05/19 06:02:21;;;;;;;12.85;4.07;;;12.80;99.90;;;;;;5074992;28;20059;-82
2023/05/19 06:04:47;;;;;;;11.73;3.65;;;12.90;99.90;;;;;;5074968;28;20040;-82
2023/05/19 06:07:16;;;;;;;14.68;5.25;;;13.20;99.90;;;;;;5075436;28;20045;-82
2023/05/19 06:09:41;;;;;;;11.90;4.15;;;13.00;99.90;;;;;;5075325;28;20051;-81
2023/05/19 06:12:07;;;;;;;13.35;4.35;;;13.20;99.90;;;;;;5073753;28;20403;-82
2023/05/19 06:14:33;;;;;;;10.10;4.05;;;13.30;99.90;;;;;;5074965;28;20048;-80
2023/05/19 06:16:58;;;;;;;12.52;4.28;;;13.40;99.90;;;;;;5073573;28;20560;-80
2023/05/19 06:19:24;;;;;;;12.18;4.10;;;13.50;99.90;;;;;;5075132;28;20524;-80
2023/05/19 06:21:50;;;;;;;10.55;4.40;;;13.50;99.90;;;;;;5072300;28;20169;-81
2023/05/19 06:24:16;;;;;;;11.73;3.88;;;13.80;99.90;;;;;;5065632;28;20041;-79
2023/05/19 06:26:42;;;;;;;11.25;4.10;;;13.90;99.90;;;;;;5054572;28;20140;-80
2023/05/19 06:29:08;;;;;;;8.45;4.32;;;13.90;99.90;;;;;;5054276;28;20055;-79
2023/05/19 06:31:33;;;;;;;11.07;3.65;;;14.00;99.90;;;;;;5054342;28;20052;-79
2023/05/19 06:33:59;;;;;;;9.45;4.10;;;14.20;99.90;;;;;;5054338;28;20098;-80
2023/05/19 06:36:25;;;;;;;8.63;4.13;;;14.30;99.90;;;;;;5054288;28;20080;-80
2023/05/19 06:38:53;;;;;;;9.05;3.83;;;14.20;99.90;;;;;;5053252;28;20102;-80
2023/05/19 06:41:20;;;;;;;10.35;4.30;;;14.40;99.90;;;;;;5053296;28;20107;-79
2023/05/19 06:43:46;;;;;;;11.07;4.25;;;14.50;99.90;;;;;;5053366;28;20056;-80
2023/05/19 06:46:11;;;;;;;10.70;4.20;;;14.60;99.90;;;;;;5054118;28;20041;-80
2023/05/19 06:48:37;;;;;;;9.13;4.13;;;14.50;99.90;;;;;;5054278;28;20128;-80
2023/05/19 06:51:03;;;;;;;6.88;3.83;;;14.20;99.90;;;;;;5054214;28;20079;-79
2023/05/19 06:53:29;;;;;;;10.30;4.30;;;14.40;99.90;;;;;;5054042;28;20041;-81
2023/05/19 06:55:55;;;;;;;12.82;4.53;;;14.60;99.90;;;;;;5053898;28;20438;-80
2023/05/19 06:58:21;;;;;;;13.27;4.35;;;14.90;99.90;;;;;;5052810;28;20128;-80
2023/05/19 07:00:46;;;;;;;7.65;3.72;;;14.70;99.90;;;;;;5053688;28;20539;-80
2023/05/19 07:03:12;;;;;;;13.07;4.28;;;14.70;99.90;;;;;;5052554;28;20055;-80
2023/05/19 07:05:38;;;;;;;9.80;4.13;;;14.80;99.90;;;;;;5053993;28;20049;-80
2023/05/19 07:08:07;;;;;;;8.63;4.45;;;15.00;99.90;;;;;;5053667;28;20408;-79
2023/05/19 07:10:32;;;;;;;8.80;3.63;;;15.10;99.90;;;;;;5052273;28;20123;-80
2023/05/19 07:12:58;;;;;;;8.43;4.22;;;15.00;99.90;;;;;;5052323;28;20175;-79
2023/05/19 07:15:24;;;;;;;9.32;4.22;;;15.20;99.90;;;;;;5052310;28;20485;-79
2023/05/19 07:17:49;;;;;;;8.80;3.78;;;15.30;99.90;;;;;;5052322;28;20087;-79
2023/05/19 07:20:15;;;;;;;10.45;4.70;;;15.50;99.90;;;;;;5053399;28;20044;-79
2023/05/19 07:22:40;;;;;;;13.52;3.90;;;15.70;99.90;;;;;;5053487;28;20041;-79
2023/05/19 07:25:07;;;;;;;11.48;4.00;;;15.90;99.90;;;;;;5053694;28;20040;-80
2023/05/19 07:27:36;;;;;;;9.70;3.92;;;15.90;99.90;;;;;;5053319;28;20061;-80
2023/05/19 07:30:04;;;;;;;6.97;4.22;;;16.10;99.90;;;;;;5051909;28;20063;-81
2023/05/19 07:32:33;;;;;;;12.63;3.70;;;16.10;99.90;;;;;;5053562;28;20551;-81
2023/05/19 07:34:59;;;;;;;9.80;3.67;;;16.20;99.90;;;;;;5053697;28;20041;-81
2023/05/19 07:37:25;;;;;;;10.73;3.45;;;16.20;99.90;;;;;;5052498;28;20052;-81
2023/05/19 07:39:50;;;;;;;9.40;3.58;;;16.40;99.90;;;;;;5053433;28;20492;-81
2023/05/19 07:42:16;;;;;;;13.15;5.13;;;16.40;99.90;;;;;;5053520;28;20047;-81
2023/05/19 07:44:42;;;;;;;10.98;4.07;;;15.90;99.90;;;;;;5053367;28;20516;-82
2023/05/19 07:47:07;;;;;;;9.10;3.55;;;16.10;99.90;;;;;;5053554;28;20053;-82
2023/05/19 07:49:33;;;;;;;12.00;3.60;;;16.20;99.90;;;;;;5053484;28;20127;-82
2023/05/19 07:51:59;;;;;;;7.88;3.92;;;16.10;99.90;;;;;;5053569;28;20427;-82
2023/05/19 07:54:25;;;;;;;9.95;3.85;;;15.90;99.90;;;;;;5053440;28;20507;-82
2023/05/19 07:56:50;;;;;;;8.88;4.30;;;15.90;99.90;;;;;;5052454;28;20065;-82
2023/05/19 07:59:16;;;;;;;14.73;4.10;;;16.30;99.90;;;;;;5053108;28;20097;-82
2023/05/19 08:01:42;;;;;;;10.10;4.57;;;16.40;99.90;;;;;;5053691;28;20047;-82
2023/05/19 08:04:09;;;;;;;11.55;3.90;;;16.60;99.90;;;;;;5053466;28;20068;-82
2023/05/19 08:06:35;;;;;;;10.63;4.40;;;16.50;99.90;;;;;;5053007;28;20378;-82
2023/05/19 08:09:00;;;;;;;11.98;4.30;;;16.70;99.90;;;;;;5053283;28;20538;-82
2023/05/19 08:11:26;;;;;;;10.63;3.90;;;16.80;99.90;;;;;;5053382;28;20095;-82
2023/05/19 08:13:52;;;;;;;12.63;4.55;;;17.00;99.90;;;;;;5053850;28;20051;-82
2023/05/19 08:16:17;;;;;;;11.82;4.38;;;16.90;99.90;;;;;;5057420;28;20422;-83
2023/05/19 08:18:43;;;;;;;10.23;3.70;;;17.00;99.90;;;;;;5057110;28;20127;-82
2023/05/19 08:21:09;;;;;;;12.43;4.20;;;16.70;99.90;;;;;;5057348;28;20037;-83
2023/05/19 08:23:36;;;;;;;12.35;3.88;;;16.70;99.90;;;;;;5057038;28;20099;-83
2023/05/19 08:26:01;;;;;;;10.68;4.38;;;16.70;99.90;;;;;;5057056;28;20580;-83
2023/05/19 08:28:27;;;;;;;7.28;3.67;;;16.30;99.90;;;;;;5056768;28;20140;-83
2023/05/19 08:30:55;;;;;;;7.63;4.00;;;16.50;99.90;;;;;;5056891;28;20493;-83
2023/05/19 08:33:21;;;;;;;11.00;3.97;;;16.90;99.90;;;;;;5056865;28;20048;-82
2023/05/19 08:35:47;;;;;;;10.05;4.30;;;16.90;99.90;;;;;;5057221;28;20037;-83
2023/05/19 08:38:13;;;;;;;7.45;4.25;;;16.90;99.90;;;;;;5056874;28;20122;-83
2023/05/19 08:40:41;;;;;;;9.23;4.90;;;16.80;99.90;;;;;;5056680;28;20056;-83
2023/05/19 08:43:07;;;;;;;9.38;4.40;;;16.90;99.90;;;;;;5056794;28;20045;-83
2023/05/19 08:45:33;;;;;;;10.52;4.15;;;16.70;99.90;;;;;;5056803;28;20041;-82
2023/05/19 08:47:59;;;;;;;12.55;4.53;;;16.90;99.90;;;;;;5056605;28;20103;-83
2023/05/19 08:50:29;;;;;;;12.45;5.55;;;16.70;99.90;;;;;;5056675;28;20116;-83
2023/05/19 08:53:08;;;;;;;7.38;4.00;;;16.40;99.90;;;;;;5056783;28;20041;-83
2023/05/19 08:55:41;;;;;;;9.05;4.82;;;16.70;99.90;;;;;;5056543;28;20107;-83
2023/05/19 08:58:07;;;;;;;10.23;4.22;;;16.50;99.90;;;;;;5056713;28;20033;-83
2023/05/19 09:00:33;;;;;;;8.60;4.43;;;16.60;99.90;;;;;;5055350;28;20174;-83
2023/05/19 09:03:00;;;;;;;8.35;4.00;;;16.80;99.90;;;;;;5056324;28;20547;-83
2023/05/19 09:05:25;;;;;;;10.60;4.35;;;16.10;99.90;;;;;;5055311;28;20040;-82
2023/05/19 09:07:51;;;;;;;9.55;4.45;;;16.60;99.90;;;;;;5056300;28;20542;-83
2023/05/19 09:10:17;;;;;;;9.85;4.03;;;16.80;99.90;;;;;;5056093;28;20132;-83
2023/05/19 09:12:44;;;;;;;8.60;3.72;;;16.50;99.90;;;;;;5054903;28;20048;-83
2023/05/19 09:15:11;;;;;;;9.25;3.50;;;16.20;99.90;;;;;;5056285;28;20080;-83
2023/05/19 09:17:38;;;;;;;10.27;4.97;;;16.00;99.90;;;;;;5056145;28;20041;-83
2023/05/19 09:20:09;;;;;;;10.40;5.15;;;16.20;99.90;;;;;;5055955;28;20563;-83
2023/05/19 09:22:46;;;;;;;10.75;4.55;;;16.10;99.90;;;;;;5054832;28;20078;-83
2023/05/19 09:25:25;;;;;;;12.23;4.47;;;16.10;99.90;;;;;;5054646;28;20483;-83
2023/05/19 09:27:53;;;;;;;11.63;4.40;;;16.20;99.90;;;;;;5054620;28;20061;-82
2023/05/19 09:30:20;;;;;;;9.95;4.80;;;15.70;99.90;;;;;;5055719;28;20087;-82
2023/05/19 09:32:46;;;;;;;9.07;4.25;;;15.90;99.90;;;;;;5055673;28;20079;-83
2023/05/19 09:35:12;;;;;;;7.93;4.00;;;16.10;99.90;;;;;;5055651;28;20045;-83
2023/05/19 09:37:40;;;;;;;8.80;3.92;;;16.10;99.90;;;;;;5055950;28;20064;-83
2023/05/19 09:40:12;;;;;;;7.45;3.38;;;16.30;99.90;;;;;;5055730;28;20045;-83
2023/05/19 09:42:42;;;;;;;8.60;4.17;;;16.30;99.90;;;;;;5055936;28;20061;-83
2023/05/19 09:45:08;;;;;;;13.60;4.10;;;16.30;99.90;;;;;;5055518;28;20571;-83
2023/05/19 09:47:39;;;;;;;9.82;3.67;;;16.50;99.90;;;;;;5054430;28;20545;-82
2023/05/19 09:50:07;;;;;;;9.25;4.28;;;16.50;99.90;;;;;;5055643;28;20119;-83
2023/05/19 09:52:43;;;;;;;8.40;3.40;;;16.30;99.90;;;;;;5054168;28;20468;-83
2023/05/19 09:55:11;;;;;;;6.57;3.70;;;16.50;99.90;;;;;;5055557;28;20053;-83
2023/05/19 09:57:39;;;;;;;7.13;3.70;;;16.10;99.90;;;;;;5055606;28;20044;-83
2023/05/19 10:00:13;;;;;;;9.73;3.67;;;16.10;99.90;;;;;;5054179;28;20056;-83
2023/05/19 10:02:44;;;;;;;11.07;3.90;;;16.30;99.90;;;;;;5054214;28;20052;-83
2023/05/19 10:05:18;;;;;;;9.93;3.88;;;16.00;99.90;;;;;;5054314;28;20056;-83
2023/05/19 10:07:54;;;;;;;8.70;3.88;;;16.10;99.90;;;;;;5054202;28;20496;-83
2023/05/19 10:10:21;;;;;;;9.15;4.60;;;15.90;99.90;;;;;;5053666;28;20045;-82
2023/05/19 10:12:49;;;;;;;6.40;3.35;;;15.70;99.90;;;;;;5055160;28;20041;-83
2023/05/19 10:15:17;;;;;;;8.55;3.45;;;16.20;99.90;;;;;;5053680;28;20056;-82
2023/05/19 10:17:43;;;;;;;9.25;4.00;;;16.40;99.90;;;;;;5055202;28;20120;-83
2023/05/19 10:20:14;;;;;;;8.77;3.97;;;16.60;99.90;;;;;;5055138;28;20072;-83
2023/05/19 10:22:41;;;;;;;10.23;4.18;;;16.70;99.90;;;;;;5054836;28;20094;-83
2023/05/19 10:25:08;;;;;;;7.00;3.75;;;16.70;99.90;;;;;;5055024;28;20049;-82
2023/05/19 10:27:52;;;;;;;12.10;4.40;;;17.00;99.90;;;;;;5053328;28;20063;-82
2023/05/19 10:30:27;;;;;;;11.02;4.50;;;17.40;99.90;;;;;;5053524;28;20056;-82
2023/05/19 10:32:56;;;;;;;9.43;4.00;;;17.60;99.90;;;;;;5054953;28;20099;-83
2023/05/19 10:35:55;;;;;;;7.85;3.72;;;17.80;99.90;;;;;;5053290;28;20049;-83
2023/05/19 10:39:08;;;;;;;7.90;3.33;;;17.60;99.90;;;;;;5054823;28;20048;-83
2023/05/19 10:41:56;;;;;;;8.43;3.10;;;17.60;99.90;;;;;;5045279;28;20136;-83
2023/05/19 10:44:30;;;;;;;12.63;3.55;;;17.90;99.90;;;;;;5053465;28;20128;-82
2023/05/19 10:46:56;;;;;;;6.97;2.90;;;17.80;99.90;;;;;;5054423;28;20083;-82
2023/05/19 10:49:22;;;;;;;9.80;3.10;;;17.10;99.90;;;;;;5054444;28;20473;-83
2023/05/19 10:51:48;;;;;;;6.63;3.30;;;16.60;99.90;;;;;;5054283;28;20492;-83
2023/05/19 10:54:16;;;;;;;7.97;3.05;;;16.70;99.90;;;;;;5052850;28;20053;-83
2023/05/19 10:56:46;;;;;;;11.48;3.13;;;16.80;99.90;;;;;;5054318;28;20107;-83
2023/05/19 10:59:36;;;;;;;8.43;2.60;;;16.60;99.90;;;;;;5052699;28;20045;-83
2023/05/19 11:02:06;;;;;;;5.32;2.63;;;16.90;99.90;;;;;;5053914;28;20040;-83
2023/05/19 11:04:55;;;;;;;6.78;2.63;;;17.20;99.90;;;;;;5054232;28;20071;-83
2023/05/19 11:07:21;;;;;;;7.97;3.35;;;16.90;99.90;;;;;;5053991;28;20400;-83
2023/05/19 11:09:53;;;;;;;10.02;3.15;;;17.30;99.90;;;;;;5052621;28;20088;-82
2023/05/19 11:12:22;;;;;;;8.02;2.95;;;17.30;99.90;;;;;;5053893;28;20500;-82
2023/05/19 11:14:51;;;;;;;8.93;2.92;;;16.60;99.90;;;;;;5052609;28;20480;-83
2023/05/19 11:17:20;;;;;;;6.07;2.95;;;16.60;99.90;;;;;;5052438;28;20037;-82
2023/05/19 11:19:56;;;;;;;12.48;4.10;;;16.60;99.90;;;;;;5052589;28;20056;-83
2023/05/19 11:22:26;;;;;;;6.53;3.40;;;16.70;99.90;;;;;;5053872;28;20123;-82
2023/05/19 11:24:55;;;;;;;8.30;3.40;;;16.30;99.90;;;;;;5052430;28;20087;-82
2023/05/19 11:27:30;;;;;;;7.90;3.30;;;16.20;99.90;;;;;;5053529;28;20052;-82
2023/05/19 11:30:01;;;;;;;8.65;3.92;;;16.20;99.90;;;;;;5053667;28;20053;-82
2023/05/19 11:32:29;;;;;;;11.32;3.65;;;15.90;99.90;;;;;;5086201;28;20088;-82
2023/05/19 11:34:56;;;;;;;7.18;3.50;;;16.30;99.90;;;;;;5053671;28;20032;-82
2023/05/19 11:37:22;;;;;;;6.07;2.47;;;16.40;99.90;;;;;;5053440;28;20041;-82
2023/05/19 11:39:48;;;;;;;8.60;3.00;;;16.90;99.90;;;;;;5053379;28;20091;-82
2023/05/19 11:42:15;;;;;;;7.60;3.35;;;17.10;99.90;;;;;;5053362;28;20607;-82
2023/05/19 11:44:44;;;;;;;13.27;3.65;;;16.70;99.90;;;;;;5052150;28;20041;-82
2023/05/19 11:47:14;;;;;;;7.57;3.10;;;16.90;99.90;;;;;;5053561;28;20043;-82
2023/05/19 11:49:53;;;;;;;9.13;3.10;;;17.20;99.90;;;;;;5053006;28;20114;-82
2023/05/19 11:52:23;;;;;;;8.20;3.38;;;17.00;99.90;;;;;;5053614;28;20037;-82
2023/05/19 11:54:49;;;;;;;9.65;3.42;;;16.50;99.90;;;;;;5053256;28;20056;-82
2023/05/19 11:57:15;;;;;;;8.45;4.00;;;16.70;99.90;;;;;;5053553;28;20052;-82
2023/05/19 11:59:44;;;;;;;10.38;3.70;;;17.10;99.90;;;;;;5051969;28;20048;-82
2023/05/19 12:02:18;;;;;;;11.32;4.13;;;16.80;99.90;;;;;;5053285;28;20045;-82
2023/05/19 12:04:45;;;;;;;11.68;4.82;;;17.10;99.90;;;;;;5053547;28;20072;-82
2023/05/19 12:07:12;;;;;;;14.95;4.35;;;17.00;99.90;;;;;;5051979;28;20396;-82
2023/05/19 12:09:38;;;;;;;12.00;4.18;;;17.10;99.90;;;;;;5053082;28;20049;-82
2023/05/19 12:12:04;;;;;;;12.55;4.15;;;17.30;99.90;;;;;;5053104;28;20358;-82
2023/05/19 12:14:30;;;;;;;12.25;3.60;;;16.70;99.90;;;;;;5053400;28;20491;-82
2023/05/19 12:16:56;;;;;;;10.02;3.83;;;16.90;99.90;;;;;;5053165;28;20061;-82
2023/05/19 12:19:25;;;;;;;7.88;4.00;;;16.80;99.90;;;;;;5053368;28;20045;-82
2023/05/19 12:21:52;;;;;;;9.50;3.78;;;16.90;99.90;;;;;;5052961;28;20381;-82
2023/05/19 12:24:19;;;;;;;12.75;3.45;;;16.80;99.90;;;;;;5053034;28;20523;-82
2023/05/19 12:26:49;;;;;;;9.48;3.60;;;16.90;99.90;;;;;;5052857;28;20060;-82
2023/05/19 12:29:16;;;;;;;13.30;4.03;;;16.70;99.90;;;;;;5053181;28;20120;-82
2023/05/19 12:31:45;;;;;;;10.93;3.75;;;16.80;99.90;;;;;;5053207;28;20059;-82
2023/05/19 12:34:12;;;;;;;13.48;4.22;;;17.10;99.90;;;;;;5052919;28;20106;-82
2023/05/19 12:36:39;;;;;;;16.50;4.72;;;16.80;99.90;;;;;;5052888;28;20091;-82
2023/05/19 12:39:05;;;;;;;10.95;4.20;;;17.00;99.90;;;;;;5052833;28;20049;-82
2023/05/19 12:41:31;;;;;;;10.35;4.35;;;17.00;99.90;;;;;;5053134;28;20055;-82
2023/05/19 12:43:57;;;;;;;10.85;4.18;;;16.50;99.90;;;;;;5051625;28;20057;-82
2023/05/19 12:46:22;;;;;;;14.15;4.18;;;16.30;99.90;;;;;;5052780;28;20044;-82
2023/05/19 12:48:48;;;;;;;13.30;4.10;;;16.50;99.90;;;;;;5052719;28;20052;-82